Time;durP1;ratioP1;P1;durP2;ratioP2;P2;SDS_P1;SDS_P2;PMS_P1;PMS_P2;Temp;Humidity;BMP_temperature;BMP_pressure;BME280_temperature;BME280_humidity;BME280_pressure;Samples;Min_cycle;Max_cycle;Signal;HPM_P1;HPM_P2
2023/03/10 00:02:18;;;;;;;18.73;10.43;;;;;;;10.12;65.11;98870.22;5061825;28;20028;-70
2023/03/10 00:04:44;;;;;;;16.17;9.57;;;;;;;9.82;69.49;98867.88;5064524;28;20027;-70
2023/03/10 00:07:10;;;;;;;18.20;10.33;;;;;;;9.68;69.17;98861.44;5066620;28;20017;-70
2023/03/10 00:09:35;;;;;;;18.57;10.27;;;;;;;9.81;68.06;98867.03;5068605;28;20028;-70
2023/03/10 00:12:00;;;;;;;18.33;10.23;;;;;;;9.30;72.04;98868.91;5066242;28;20581;-70
2023/03/10 00:14:26;;;;;;;18.33;10.87;;;;;;;9.56;68.90;98861.91;5066962;28;20067;-70
2023/03/10 00:16:51;;;;;;;18.30;11.07;;;;;;;9.98;67.93;98848.09;5066643;28;20112;-69
2023/03/10 00:19:16;;;;;;;17.70;10.30;;;;;;;9.65;68.66;98856.31;5066746;28;20024;-69
2023/03/10 00:21:44;;;;;;;18.53;11.07;;;;;;;9.92;69.44;98853.59;5065235;28;20492;-69
2023/03/10 00:24:10;;;;;;;18.43;10.77;;;;;;;10.53;64.65;98852.06;5068642;28;20031;-68
2023/03/10 00:26:37;;;;;;;18.93;10.67;;;;;;;9.70;65.44;98857.91;5067185;28;20020;-69
2023/03/10 00:29:03;;;;;;;17.07;10.27;;;;;;;10.30;69.21;98859.06;5066375;28;20036;-68
2023/03/10 00:31:30;;;;;;;19.40;11.17;;;;;;;10.80;63.22;98857.06;5068019;28;20117;-68
2023/03/10 00:33:56;;;;;;;19.23;11.27;;;;;;;11.26;59.51;98854.22;5048994;28;20053;-68
2023/03/10 00:36:25;;;;;;;18.77;10.70;;;;;;;10.82;60.18;98855.22;5047932;28;20540;-68
2023/03/10 00:38:52;;;;;;;18.23;11.00;;;;;;;11.00;60.74;98854.44;5046580;28;20352;-68
2023/03/10 00:41:20;;;;;;;17.80;10.70;;;;;;;11.08;60.06;98858.47;5046711;28;20025;-69
2023/03/10 00:43:46;;;;;;;22.13;11.37;;;;;;;11.74;57.98;98850.28;5065477;28;20032;-68
2023/03/10 00:46:12;;;;;;;20.27;11.47;;;;;;;11.54;58.88;98848.59;5067672;28;20129;-68
2023/03/10 00:48:38;;;;;;;18.93;11.33;;;;;;;11.57;57.18;98853.69;5066115;28;20063;-68
2023/03/10 00:51:04;;;;;;;19.63;11.33;;;;;;;12.18;56.29;98857.00;5066622;28;20031;-68
2023/03/10 00:53:31;;;;;;;21.53;11.87;;;;;;;12.20;55.40;98852.53;5065750;28;20029;-68
2023/03/10 00:55:56;;;;;;;22.03;11.97;;;;;;;12.30;55.52;98859.03;5067447;28;20508;-68
2023/03/10 00:58:22;;;;;;;17.77;11.67;;;;;;;11.58;56.89;98855.38;5068443;28;20028;-68
2023/03/10 01:00:47;;;;;;;18.63;11.13;;;;;;;11.07;60.17;98862.84;5065380;28;20025;-68
2023/03/10 01:03:12;;;;;;;18.07;11.87;;;;;;;12.18;56.17;98849.97;5066725;28;20032;-68
2023/03/10 01:05:38;;;;;;;19.53;11.37;;;;;;;11.29;58.02;98844.47;5064831;28;20155;-68
2023/03/10 01:08:04;;;;;;;19.03;11.03;;;;;;;11.25;59.29;98829.84;5054558;28;20117;-68
2023/03/10 01:10:29;;;;;;;19.50;11.17;;;;;;;11.52;57.83;98832.09;5070107;28;20070;-68
2023/03/10 01:12:55;;;;;;;19.30;11.17;;;;;;;11.20;59.32;98823.94;5068723;28;20024;-68
2023/03/10 01:15:20;;;;;;;18.17;10.33;;;;;;;10.66;61.17;98824.53;5069866;28;20032;-69
2023/03/10 01:17:46;;;;;;;19.13;11.33;;;;;;;11.41;58.95;98822.13;5069084;28;20025;-68
2023/03/10 01:20:14;;;;;;;19.33;10.57;;;;;;;11.48;59.11;98812.22;5069852;28;20016;-68
2023/03/10 01:22:40;;;;;;;19.00;11.27;;;;;;;10.63;61.00;98819.44;5068716;28;20031;-68
2023/03/10 01:25:05;;;;;;;18.43;11.17;;;;;;;11.04;61.07;98815.94;5069712;28;20856;-68
2023/03/10 01:27:31;;;;;;;21.33;11.07;;;;;;;10.73;59.73;98809.44;5070948;28;20028;-68
2023/03/10 01:29:56;;;;;;;22.23;12.67;;;;;;;11.26;57.82;98810.59;5069256;28;20495;-68
2023/03/10 01:32:21;;;;;;;19.07;11.23;;;;;;;10.94;60.20;98818.09;5068668;28;20078;-68
2023/03/10 01:34:47;;;;;;;17.87;10.73;;;;;;;10.92;58.69;98817.31;5070360;28;20020;-68
2023/03/10 01:37:12;;;;;;;20.90;11.73;;;;;;;11.13;60.75;98812.91;5070342;28;20040;-68
2023/03/10 01:39:38;;;;;;;20.17;11.00;;;;;;;11.30;57.74;98804.31;5069725;28;20027;-68
2023/03/10 01:42:03;;;;;;;19.27;10.73;;;;;;;11.20;57.92;98803.03;5068942;28;20036;-68
2023/03/10 01:44:28;;;;;;;18.33;10.93;;;;;;;11.46;57.35;98794.00;5065895;28;20043;-68
2023/03/10 01:46:55;;;;;;;21.73;11.87;;;;;;;10.90;59.95;98790.41;5068866;28;20515;-68
2023/03/10 01:49:27;;;;;;;17.07;10.50;;;;;;;11.44;58.41;98787.13;5070359;28;20107;-68
2023/03/10 01:52:20;;;;;;;19.17;10.43;;;;;;;11.49;56.82;98783.38;5067701;28;20119;-68
2023/03/10 01:54:52;;;;;;;19.60;11.53;;;;;;;11.46;57.49;98785.31;5056966;28;20044;-68
2023/03/10 01:57:22;;;;;;;19.80;11.67;;;;;;;10.60;60.11;98789.97;5071120;28;20021;-68
2023/03/10 01:59:49;;;;;;;19.47;11.83;;;;;;;11.03;60.21;98785.47;5048284;28;20280;-68
2023/03/10 02:02:16;;;;;;;19.90;10.70;;;;;;;11.06;59.83;98779.25;5056111;28;20028;-68
2023/03/10 02:04:49;;;;;;;20.43;11.23;;;;;;;11.10;58.12;98771.22;5067924;28;20016;-68
2023/03/10 02:07:18;;;;;;;17.17;10.60;;;;;;;10.93;57.84;98776.34;5067656;28;20048;-68
2023/03/10 02:09:47;;;;;;;19.30;11.40;;;;;;;10.96;59.29;98784.03;5069313;28;20017;-68
2023/03/10 02:12:14;;;;;;;18.80;11.50;;;;;;;10.68;61.50;98780.88;5070061;28;20020;-68
2023/03/10 02:14:42;;;;;;;18.73;11.40;;;;;;;11.23;59.15;98766.28;5067887;28;20116;-68
2023/03/10 02:17:12;;;;;;;20.13;11.53;;;;;;;11.15;58.71;98752.69;5068397;28;20027;-68
2023/03/10 02:19:56;;;;;;;19.87;11.47;;;;;;;11.51;57.60;98746.69;5069728;28;20537;-68
2023/03/10 02:22:22;;;;;;;20.63;12.03;;;;;;;11.15;57.44;98747.47;5069197;28;20024;-68
2023/03/10 02:25:17;;;;;;;21.37;11.60;;;;;;;11.28;59.20;98743.38;5067601;28;20439;-69
2023/03/10 02:27:43;;;;;;;20.27;11.50;;;;;;;10.21;63.28;98744.53;5069188;28;20111;-68
2023/03/10 02:30:37;;;;;;;19.43;11.60;;;;;;;10.18;64.66;98742.06;5068352;28;20032;-68
2023/03/10 02:33:08;;;;;;;19.83;11.47;;;;;;;11.36;58.39;98735.16;5065613;28;20396;-68
2023/03/10 02:35:34;;;;;;;18.47;10.97;;;;;;;10.91;59.58;98733.72;5068518;28;20473;-68
2023/03/10 02:37:59;;;;;;;21.53;11.27;;;;;;;11.13;60.09;98733.63;5068103;28;20024;-68
2023/03/10 02:40:39;;;;;;;19.83;11.10;;;;;;;11.42;57.22;98734.88;5069092;28;20029;-68
2023/03/10 02:43:25;;;;;;;17.27;10.13;;;;;;;11.24;58.92;98728.75;5067729;28;20035;-68
2023/03/10 02:45:52;;;;;;;21.07;10.90;;;;;;;11.69;55.79;98730.13;5068806;28;20438;-68
2023/03/10 02:48:44;;;;;;;20.47;11.00;;;;;;;11.38;56.89;98723.72;5068264;28;20024;-68
2023/03/10 02:51:17;;;;;;;18.40;11.03;;;;;;;11.38;58.28;98726.31;5064935;28;20451;-68
2023/03/10 02:53:43;;;;;;;17.00;10.00;;;;;;;10.04;61.49;98731.31;5068165;28;20036;-68
2023/03/10 02:56:08;;;;;;;18.77;11.40;;;;;;;11.03;59.94;98728.81;5067859;28;20035;-68
2023/03/10 02:58:35;;;;;;;18.20;11.30;;;;;;;11.54;57.81;98728.25;5068124;28;20510;-68
2023/03/10 03:01:01;;;;;;;19.20;10.50;;;;;;;11.73;57.48;98724.72;5069642;28;20469;-68
2023/03/10 03:03:26;;;;;;;23.33;11.80;;;;;;;11.11;57.81;98719.75;5067585;28;21484;-68
2023/03/10 03:05:52;;;;;;;20.80;11.83;;;;;;;10.93;60.45;98735.34;5068913;28;20450;-68
2023/03/10 03:08:18;;;;;;;25.80;11.67;;;;;;;10.78;59.16;98720.38;5070393;28;20035;-68
2023/03/10 03:10:44;;;;;;;18.57;10.70;;;;;;;11.10;59.81;98729.38;5067336;28;20028;-68
2023/03/10 03:13:10;;;;;;;19.70;10.93;;;;;;;11.31;58.76;98724.94;5063104;28;20503;-68
2023/03/10 03:15:35;;;;;;;17.53;10.60;;;;;;;11.05;58.87;98720.91;5054926;28;20480;-68
2023/03/10 03:18:01;;;;;;;20.33;11.70;;;;;;;10.79;60.87;98724.69;5068029;28;20024;-68
2023/03/10 03:20:27;;;;;;;20.07;11.43;;;;;;;11.57;59.49;98722.84;5068338;28;20034;-68
2023/03/10 03:22:53;;;;;;;17.43;11.17;;;;;;;10.96;59.47;98716.94;5066707;28;20123;-68
2023/03/10 03:25:21;;;;;;;19.67;11.83;;;;;;;11.11;58.38;98720.59;5068408;28;20111;-69
2023/03/10 03:27:48;;;;;;;20.33;10.83;;;;;;;11.95;57.98;98725.44;5067307;28;20054;-70
2023/03/10 03:30:17;;;;;;;16.17;10.50;;;;;;;11.35;57.04;98723.88;5068212;28;20173;-68
2023/03/10 03:32:43;;;;;;;21.37;11.23;;;;;;;12.17;54.23;98725.19;5066608;28;20111;-69
2023/03/10 03:35:12;;;;;;;19.47;10.37;;;;;;;11.14;57.18;98720.50;5068355;28;20119;-69
2023/03/10 03:37:37;;;;;;;16.87;10.43;;;;;;;11.45;58.86;98724.28;5066947;28;20127;-69
2023/03/10 03:40:11;;;;;;;19.43;11.27;;;;;;;11.89;55.87;98712.59;5067597;28;20115;-69
2023/03/10 03:42:40;;;;;;;18.10;10.83;;;;;;;11.64;56.27;98707.72;5066950;28;20048;-69
2023/03/10 03:45:07;;;;;;;17.33;10.27;;;;;;;10.97;58.58;98705.56;5064886;28;20032;-69
2023/03/10 03:47:32;;;;;;;16.83;9.93;;;;;;;10.48;61.21;98705.13;5067334;28;20155;-69
2023/03/10 03:49:57;;;;;;;19.67;10.90;;;;;;;11.21;58.19;98713.22;5067628;28;20139;-69
2023/03/10 03:52:23;;;;;;;20.50;10.47;;;;;;;12.08;56.03;98711.72;5067772;28;20116;-69
2023/03/10 03:54:48;;;;;;;18.27;10.43;;;;;;;11.51;57.29;98712.66;5067667;28;20481;-69
2023/03/10 03:57:14;;;;;;;17.77;10.37;;;;;;;11.62;57.25;98702.56;5067985;28;20054;-69
2023/03/10 03:59:39;;;;;;;18.00;11.27;;;;;;;11.42;57.02;98707.91;5067535;28;20056;-69
2023/03/10 04:02:04;;;;;;;16.77;10.87;;;;;;;11.53;56.87;98708.22;5065484;28;21240;-69
2023/03/10 04:04:30;;;;;;;18.40;10.50;;;;;;;11.09;58.82;98705.94;5066857;28;20032;-69
2023/03/10 04:06:55;;;;;;;18.43;9.87;;;;;;;10.13;64.48;98710.06;5068095;28;20024;-69
2023/03/10 04:09:21;;;;;;;19.80;9.63;;;;;;;10.95;61.06;98698.69;5065910;28;20028;-69
2023/03/10 04:11:46;;;;;;;16.63;8.83;;;;;;;10.24;63.94;98692.19;5065987;28;20071;-69
2023/03/10 04:14:12;;;;;;;30.67;10.23;;;;;;;11.32;60.30;98703.09;5066976;28;20063;-70
2023/03/10 04:16:37;;;;;;;21.90;11.20;;;;;;;11.60;56.65;98680.00;5065445;28;20465;-69
2023/03/10 04:19:06;;;;;;;18.90;10.37;;;;;;;10.61;61.05;98688.00;5062701;28;20414;-69
2023/03/10 04:21:32;;;;;;;17.00;10.20;;;;;;;10.36;64.99;98677.78;5062347;28;20028;-69
2023/03/10 04:23:57;;;;;;;16.97;10.47;;;;;;;10.90;60.66;98691.06;5047144;28;20426;-69
2023/03/10 04:26:23;;;;;;;17.17;10.80;;;;;;;11.51;58.29;98699.59;5047870;28;20052;-68
2023/03/10 04:28:48;;;;;;;16.67;10.17;;;;;;;11.57;57.47;98709.78;5064487;28;20370;-69
2023/03/10 04:31:16;;;;;;;17.47;10.00;;;;;;;11.06;58.66;98706.06;5067522;28;20028;-68
2023/03/10 04:33:41;;;;;;;18.27;10.13;;;;;;;10.74;61.58;98706.59;5067396;28;20473;-68
2023/03/10 04:36:07;;;;;;;18.03;9.50;;;;;;;10.62;62.05;98714.97;5066603;28;20021;-68
2023/03/10 04:38:33;;;;;;;16.73;10.07;;;;;;;10.77;60.39;98713.44;5066835;28;20032;-68
2023/03/10 04:40:58;;;;;;;17.93;9.80;;;;;;;11.31;59.03;98717.06;5069209;28;20516;-68
2023/03/10 04:43:24;;;;;;;16.57;9.73;;;;;;;11.16;58.03;98702.09;5071248;28;20035;-68
2023/03/10 04:45:50;;;;;;;19.43;10.77;;;;;;;10.38;61.39;98703.84;5070071;28;20028;-68
2023/03/10 04:48:15;;;;;;;18.53;10.47;;;;;;;10.05;64.17;98701.72;5069718;28;20032;-68
2023/03/10 04:50:41;;;;;;;15.60;8.80;;;;;;;10.61;60.18;98700.22;5069714;28;20123;-67
2023/03/10 04:53:06;;;;;;;16.87;10.03;;;;;;;10.76;60.15;98696.09;5070438;28;20116;-68
2023/03/10 04:55:31;;;;;;;17.40;9.57;;;;;;;11.34;58.04;98701.22;5069073;28;20491;-68
2023/03/10 04:57:57;;;;;;;19.03;10.40;;;;;;;10.45;60.83;98694.81;5069897;28;20029;-68
2023/03/10 05:00:23;;;;;;;19.20;10.53;;;;;;;10.89;60.93;98689.38;5071958;28;20036;-68
2023/03/10 05:02:48;;;;;;;21.83;9.83;;;;;;;9.85;64.40;98690.34;5070710;28;20539;-68
2023/03/10 05:05:13;;;;;;;19.07;9.60;;;;;;;10.13;63.20;98690.03;5072472;28;20085;-68
2023/03/10 05:07:39;;;;;;;18.07;10.07;;;;;;;10.59;61.11;98687.25;5069666;28;20024;-68
2023/03/10 05:10:05;;;;;;;18.37;9.60;;;;;;;10.75;59.52;98686.53;5066905;28;20353;-68
2023/03/10 05:12:31;;;;;;;20.60;9.97;;;;;;;10.45;61.87;98679.97;5070092;28;20083;-67
2023/03/10 05:14:56;;;;;;;19.20;9.53;;;;;;;9.65;63.04;98684.16;5070567;28;20115;-68
2023/03/10 05:17:22;;;;;;;21.77;9.53;;;;;;;9.78;65.49;98679.31;5068048;28;20028;-68
2023/03/10 05:19:47;;;;;;;20.13;10.07;;;;;;;9.19;69.13;98690.34;5067524;28;20072;-68
2023/03/10 05:22:12;;;;;;;15.47;8.67;;;;;;;9.09;72.38;98682.88;5071955;28;20033;-68
2023/03/10 05:24:38;;;;;;;17.70;8.67;;;;;;;9.08;70.85;98677.72;5069261;28;20043;-68
2023/03/10 05:27:04;;;;;;;20.47;9.97;;;;;;;9.37;70.88;98679.22;5070191;28;20032;-68
2023/03/10 05:29:29;;;;;;;19.40;9.60;;;;;;;9.99;66.65;98677.56;5068216;28;20395;-68
2023/03/10 05:31:55;;;;;;;19.47;9.67;;;;;;;10.69;61.21;98667.59;5068799;28;20089;-68
2023/03/10 05:34:22;;;;;;;18.73;8.40;;;;;;;9.29;72.46;98676.91;5071522;28;20388;-68
2023/03/10 05:36:48;;;;;;;16.30;8.73;;;;;;;9.94;66.55;98679.50;5068832;28;20064;-68
2023/03/10 05:39:13;;;;;;;15.10;8.30;;;;;;;9.26;68.62;98679.63;5069164;28;20134;-68
2023/03/10 05:41:39;;;;;;;15.67;7.67;;;;;;;8.95;71.33;98678.19;5069848;28;20074;-68
2023/03/10 05:44:05;;;;;;;15.33;7.77;;;;;;;9.79;66.20;98669.72;5070498;28;20096;-68
2023/03/10 05:46:31;;;;;;;18.13;8.60;;;;;;;9.48;67.75;98678.78;5071169;28;20048;-67
2023/03/10 05:48:56;;;;;;;16.50;8.33;;;;;;;9.81;65.72;98680.94;5068299;28;20507;-69
2023/03/10 05:51:22;;;;;;;19.00;8.17;;;;;;;9.56;66.41;98681.94;5068037;28;20024;-68
2023/03/10 05:53:48;;;;;;;17.57;8.73;;;;;;;9.19;69.46;98693.81;5069127;28;20573;-68
2023/03/10 05:56:16;;;;;;;18.53;8.80;;;;;;;9.59;67.18;98687.03;5071427;28;20377;-68
2023/03/10 05:58:42;;;;;;;18.97;8.67;;;;;;;9.83;66.28;98681.72;5068277;28;20119;-68
2023/03/10 06:01:08;;;;;;;17.53;8.20;;;;;;;9.34;67.85;98679.31;5068896;28;20490;-68
2023/03/10 06:03:34;;;;;;;21.43;7.83;;;;;;;9.57;67.65;98678.41;5069091;28;20029;-68
2023/03/10 06:06:00;;;;;;;18.80;7.77;;;;;;;9.31;68.17;98676.81;5067835;28;20464;-68
2023/03/10 06:08:29;;;;;;;19.20;9.00;;;;;;;9.73;66.35;98688.25;5069093;28;20036;-68
2023/03/10 06:10:56;;;;;;;15.73;8.30;;;;;;;9.68;66.71;98689.28;5051193;28;20033;-68
2023/03/10 06:13:22;;;;;;;30.03;9.10;;;;;;;9.64;67.49;98687.69;5048862;28;20052;-68
2023/03/10 06:15:52;;;;;;;17.50;7.60;;;;;;;10.10;63.97;98690.16;5050318;28;20122;-68
2023/03/10 06:18:19;;;;;;;17.90;8.43;;;;;;;9.52;67.63;98693.41;5051131;28;20032;-68
2023/03/10 06:20:46;;;;;;;15.77;8.37;;;;;;;9.05;72.25;98685.66;5058407;28;20033;-68
2023/03/10 06:23:13;;;;;;;19.30;8.07;;;;;;;9.67;68.72;98686.69;5051033;28;20148;-68
2023/03/10 06:25:38;;;;;;;16.83;7.60;;;;;;;9.33;68.55;98693.28;5069183;28;20531;-68
2023/03/10 06:28:04;;;;;;;15.70;7.30;;;;;;;10.12;65.09;98687.47;5067805;28;20040;-68
2023/03/10 06:30:30;;;;;;;15.17;6.87;;;;;;;10.61;61.73;98682.78;5069220;28;20032;-68
2023/03/10 06:32:57;;;;;;;16.23;7.70;;;;;;;10.37;62.79;98686.47;5068121;28;20369;-68
2023/03/10 06:35:22;;;;;;;14.30;7.00;;;;;;;10.01;64.10;98694.00;5053203;28;20037;-68
2023/03/10 06:37:47;;;;;;;13.03;6.47;;;;;;;9.29;67.54;98700.34;5048341;28;20055;-68
2023/03/10 06:40:13;;;;;;;16.67;7.47;;;;;;;10.31;64.18;98683.16;5066679;28;20062;-68
2023/03/10 06:42:40;;;;;;;15.33;6.83;;;;;;;9.12;68.80;98684.50;5067739;28;20031;-68
2023/03/10 06:45:07;;;;;;;16.97;6.77;;;;;;;9.47;68.96;98685.75;5067942;28;20803;-69
2023/03/10 06:47:32;;;;;;;13.33;5.80;;;;;;;9.53;67.80;98684.66;5067224;28;20467;-69
2023/03/10 06:49:59;;;;;;;13.63;6.87;;;;;;;9.86;65.37;98686.81;5064157;28;20037;-69
2023/03/10 06:52:25;;;;;;;13.67;6.60;;;;;;;10.29;64.23;98685.00;5068177;28;20055;-69
2023/03/10 06:54:50;;;;;;;12.53;5.97;;;;;;;9.83;64.52;98684.31;5067026;28;20508;-70
2023/03/10 06:57:15;;;;;;;13.23;6.00;;;;;;;9.79;67.86;98698.41;5068807;28;20060;-68
2023/03/10 06:59:41;;;;;;;11.50;5.40;;;;;;;9.28;67.29;98698.66;5065667;28;20054;-68
2023/03/10 07:02:11;;;;;;;11.73;5.50;;;;;;;9.03;70.18;98706.56;5056838;28;20563;-68
2023/03/10 07:04:36;;;;;;;13.37;5.80;;;;;;;9.63;67.56;98700.78;5062057;28;20028;-68
2023/03/10 07:07:02;;;;;;;11.60;5.20;;;;;;;9.57;66.56;98708.84;5059642;28;20039;-69
2023/03/10 07:09:27;;;;;;;13.43;5.63;;;;;;;10.39;63.64;98702.94;5060345;28;20025;-68
2023/03/10 07:11:53;;;;;;;13.97;6.27;;;;;;;10.58;62.00;98706.44;5055555;28;20033;-68
2023/03/10 07:14:18;;;;;;;13.40;6.03;;;;;;;10.70;60.39;98699.78;5067112;28;20037;-68
2023/03/10 07:16:45;;;;;;;15.07;6.63;;;;;;;9.54;68.47;98703.78;5066548;28;20123;-68
2023/03/10 07:19:11;;;;;;;11.67;6.27;;;;;;;10.58;62.26;98701.22;5072069;28;20124;-68
2023/03/10 07:21:36;;;;;;;12.40;5.27;;;;;;;9.88;64.42;98690.22;5051326;28;20107;-68
2023/03/10 07:24:01;;;;;;;11.43;5.50;;;;;;;10.04;64.47;98700.00;5062598;28;20036;-68
2023/03/10 07:26:27;;;;;;;11.90;5.40;;;;;;;10.34;62.86;98693.53;5067308;28;20056;-68
2023/03/10 07:28:53;;;;;;;12.23;5.67;;;;;;;10.63;63.66;98701.84;5066258;28;20265;-68
2023/03/10 07:31:19;;;;;;;10.53;6.33;;;;;;;9.83;66.60;98697.38;5063945;28;20028;-68
2023/03/10 07:33:44;;;;;;;12.67;5.23;;;;;;;9.83;65.73;98705.19;5062962;28;20043;-68
2023/03/10 07:36:13;;;;;;;12.90;5.47;;;;;;;9.89;66.20;98704.97;5066785;28;20545;-68
2023/03/10 07:38:39;;;;;;;13.47;6.30;;;;;;;9.90;65.94;98708.41;5067038;28;20549;-68
2023/03/10 07:41:16;;;;;;;13.07;5.47;;;;;;;9.61;67.42;98700.00;5068843;28;20130;-68
2023/03/10 07:43:41;;;;;;;13.60;5.43;;;;;;;10.13;66.83;98708.28;5065946;28;20032;-68
2023/03/10 07:46:09;;;;;;;11.87;5.77;;;;;;;9.82;66.91;98719.16;5067322;28;20048;-68
2023/03/10 07:48:35;;;;;;;11.53;5.97;;;;;;;10.73;63.16;98711.88;5066740;28;20401;-69
2023/03/10 07:51:00;;;;;;;12.60;6.73;;;;;;;10.00;66.31;98715.81;5066153;28;20024;-68
2023/03/10 07:53:27;;;;;;;13.47;5.70;;;;;;;9.97;66.48;98715.06;5066255;28;20024;-68
2023/03/10 07:55:52;;;;;;;15.10;6.20;;;;;;;10.04;65.59;98710.44;5067620;28;20166;-68
2023/03/10 07:58:22;;;;;;;11.13;5.87;;;;;;;10.07;65.96;98718.13;5060413;28;20118;-68
2023/03/10 08:00:57;;;;;;;15.50;6.83;;;;;;;9.83;67.83;98723.47;5065008;28;20098;-68
2023/03/10 08:03:24;;;;;;;12.23;6.97;;;;;;;10.09;66.24;98721.56;5079815;28;20043;-68
2023/03/10 08:05:50;;;;;;;14.33;6.47;;;;;;;9.78;69.37;98725.41;5066007;28;20205;-68
2023/03/10 08:08:16;;;;;;;12.47;5.73;;;;;;;10.21;66.61;98725.41;5067038;28;20110;-68
2023/03/10 08:10:41;;;;;;;12.93;6.30;;;;;;;9.77;68.41;98723.72;5066482;28;20024;-68
2023/03/10 08:13:07;;;;;;;13.37;6.50;;;;;;;9.58;68.43;98724.44;5045752;28;20522;-68
2023/03/10 08:15:32;;;;;;;13.53;6.17;;;;;;;10.16;66.45;98723.00;5051964;28;20043;-68
2023/03/10 08:17:58;;;;;;;14.77;7.30;;;;;;;10.14;66.75;98723.06;5063193;28;20029;-68
2023/03/10 08:20:24;;;;;;;12.53;6.33;;;;;;;9.26;69.75;98726.56;5065750;28;20032;-68
2023/03/10 08:22:52;;;;;;;13.27;6.83;;;;;;;10.38;64.75;98728.19;5064517;28;20491;-68
2023/03/10 08:25:17;;;;;;;15.97;6.90;;;;;;;10.63;63.34;98730.59;5068331;28;20032;-69
2023/03/10 08:27:43;;;;;;;12.27;6.53;;;;;;;10.15;64.55;98726.50;5042110;28;20400;-68
2023/03/10 08:30:09;;;;;;;11.30;6.17;;;;;;;9.34;70.14;98732.31;5055738;28;20065;-68
2023/03/10 08:32:34;;;;;;;15.13;6.57;;;;;;;10.11;66.45;98717.09;5065325;28;20042;-68
2023/03/10 08:35:00;;;;;;;12.43;6.40;;;;;;;10.24;67.31;98728.72;5066064;28;20111;-68
2023/03/10 08:37:25;;;;;;;12.33;6.50;;;;;;;10.32;64.62;98726.66;5064421;28;20035;-68
2023/03/10 08:39:52;;;;;;;13.53;6.33;;;;;;;10.60;64.12;98730.72;5054433;28;20033;-69
2023/03/10 08:42:18;;;;;;;11.73;6.13;;;;;;;9.60;67.74;98733.06;5058956;28;20028;-69
2023/03/10 08:44:43;;;;;;;10.80;6.03;;;;;;;9.16;71.86;98717.38;5064904;28;20395;-70
2023/03/10 08:47:09;;;;;;;11.73;5.53;;;;;;;10.40;67.49;98715.91;5057050;28;20053;-70
2023/03/10 08:49:34;;;;;;;14.07;6.37;;;;;;;9.94;67.51;98723.88;5060487;28;20396;-69
2023/03/10 08:52:00;;;;;;;7.93;4.60;;;;;;;9.12;70.68;98721.88;5062580;28;20028;-69
2023/03/10 08:54:26;;;;;;;8.33;5.03;;;;;;;9.45;73.91;98726.69;5063216;28;20039;-69
2023/03/10 08:56:51;;;;;;;7.93;4.53;;;;;;;9.49;74.57;98730.88;5066193;28;20365;-69
2023/03/10 08:59:18;;;;;;;11.10;5.90;;;;;;;9.02;78.36;98727.47;5065377;28;20483;-69
2023/03/10 09:01:44;;;;;;;8.33;4.97;;;;;;;9.27;72.88;98741.28;5065862;28;20037;-69
2023/03/10 09:04:10;;;;;;;9.13;4.90;;;;;;;9.81;74.01;98736.56;5054160;28;20443;-69
2023/03/10 09:06:39;;;;;;;10.57;5.47;;;;;;;10.53;65.38;98737.13;5061912;28;20056;-68
2023/03/10 09:09:05;;;;;;;9.73;5.27;;;;;;;11.03;64.40;98744.50;5046093;28;20477;-69
2023/03/10 09:11:33;;;;;;;7.97;5.20;;;;;;;10.08;66.55;98753.78;5047893;28;20036;-70
2023/03/10 09:14:00;;;;;;;7.23;4.40;;;;;;;10.51;66.35;98757.25;5057661;28;20148;-69
2023/03/10 09:16:27;;;;;;;7.80;4.73;;;;;;;10.79;62.34;98758.66;5064532;28;20124;-69
2023/03/10 09:18:53;;;;;;;8.73;5.57;;;;;;;11.19;62.72;98751.66;5065178;28;20526;-69
2023/03/10 09:21:19;;;;;;;17.47;8.70;;;;;;;11.06;62.38;98753.97;5066233;28;20396;-69
2023/03/10 09:23:47;;;;;;;16.43;9.40;;;;;;;10.95;60.84;98759.69;5064224;28;20033;-69
2023/03/10 09:26:13;;;;;;;11.53;5.93;;;;;;;10.97;61.45;98759.59;5067303;28;20458;-68
2023/03/10 09:28:39;;;;;;;9.87;5.37;;;;;;;10.74;63.97;98752.78;5069339;28;20480;-69
2023/03/10 09:31:06;;;;;;;7.67;4.93;;;;;;;11.12;62.70;98758.06;5066049;28;20060;-69
2023/03/10 09:33:32;;;;;;;5.80;3.83;;;;;;;11.36;59.13;98749.09;5067161;28;20438;-69
2023/03/10 09:35:58;;;;;;;5.93;3.57;;;;;;;10.04;66.13;98752.22;5066290;28;20024;-69
2023/03/10 09:38:24;;;;;;;6.13;3.07;;;;;;;11.09;64.58;98763.44;5070140;28;20060;-69
2023/03/10 09:41:06;;;;;;;6.73;3.83;;;;;;;10.69;62.45;98764.28;5068080;28;20396;-69
2023/03/10 09:43:38;;;;;;;6.27;4.23;;;;;;;11.11;60.46;98766.84;5067856;28;20103;-69
2023/03/10 09:46:23;;;;;;;6.57;3.72;;;;;;;10.57;64.17;98777.88;5069063;28;20103;-68
2023/03/10 09:48:55;;;;;;;5.40;3.73;;;;;;;11.54;61.19;98770.94;5067885;28;20394;-69
2023/03/10 09:51:22;;;;;;;6.53;4.13;;;;;;;11.50;60.54;98771.16;5067277;28;20043;-68
2023/03/10 09:53:57;;;;;;;5.33;3.30;;;;;;;9.78;69.92;98781.06;5068745;28;20033;-69
2023/03/10 09:56:33;;;;;;;4.07;3.07;;;;;;;10.23;66.18;98788.84;5069009;28;20048;-68
2023/03/10 09:59:08;;;;;;;6.83;4.07;;;;;;;10.77;61.54;98791.84;5067544;28;20560;-68
2023/03/10 10:01:34;;;;;;;4.50;2.97;;;;;;;9.15;71.46;98793.88;5068818;28;20032;-68
2023/03/10 10:04:21;;;;;;;4.87;3.60;;;;;;;11.13;61.29;98783.31;5069226;28;20527;-68
2023/03/10 10:06:47;;;;;;;4.30;2.90;;;;;;;9.92;67.71;98801.38;5057035;28;20035;-67
2023/03/10 10:09:42;;;;;;;6.47;4.17;;;;;;;10.97;60.75;98804.06;5085346;28;20028;-68
2023/03/10 10:12:17;;;;;;;4.70;3.13;;;;;;;11.12;60.82;98805.13;5062618;28;20042;-68
2023/03/10 10:14:44;;;;;;;2.13;1.70;;;;;;;9.80;63.37;98807.09;5062379;28;20070;-68
2023/03/10 10:17:28;;;;;;;2.80;2.00;;;;;;;10.59;63.98;98812.63;5068564;28;20055;-68
2023/03/10 10:19:54;;;;;;;2.87;1.90;;;;;;;9.19;66.20;98813.72;5067909;28;20067;-68
2023/03/10 10:22:27;;;;;;;2.97;1.67;;;;;;;10.10;68.90;98809.41;5069499;28;20048;-68
2023/03/10 10:25:08;;;;;;;4.97;3.40;;;;;;;9.93;65.02;98815.28;5067471;28;20071;-68
2023/03/10 10:27:37;;;;;;;3.27;2.00;;;;;;;9.08;67.29;98819.31;5067478;28;20048;-69
2023/03/10 10:30:26;;;;;;;3.37;2.40;;;;;;;9.70;66.55;98817.03;5065547;28;20020;-68
2023/03/10 10:33:00;;;;;;;3.47;2.40;;;;;;;10.02;66.22;98815.75;5058800;28;20024;-68
2023/03/10 10:35:31;;;;;;;2.63;1.97;;;;;;;10.09;65.43;98818.13;5066327;28;20361;-68
2023/03/10 10:38:03;;;;;;;4.00;2.30;;;;;;;9.56;66.71;98811.47;5063292;28;20460;-68
2023/03/10 10:40:33;;;;;;;2.90;2.20;;;;;;;9.18;70.74;98814.63;5048559;28;20025;-68
2023/03/10 10:43:08;;;;;;;3.17;2.10;;;;;;;10.02;67.36;98813.16;5056224;28;20542;-68
2023/03/10 10:45:38;;;;;;;3.17;2.10;;;;;;;10.00;66.15;98814.97;5067869;28;20418;-68
2023/03/10 10:48:04;;;;;;;3.77;2.47;;;;;;;10.08;63.81;98806.00;5065326;28;20102;-69
2023/03/10 10:50:34;;;;;;;2.97;2.00;;;;;;;9.77;66.57;98815.03;5069900;28;20044;-68
2023/03/10 10:53:18;;;;;;;3.43;2.40;;;;;;;10.35;65.21;98817.94;5065501;28;20046;-69
2023/03/10 10:55:46;;;;;;;3.20;1.77;;;;;;;9.06;71.71;98828.09;5065475;28;20060;-69
2023/03/10 10:58:28;;;;;;;3.37;2.20;;;;;;;9.72;70.55;98836.06;5068323;28;20032;-68
2023/03/10 11:00:57;;;;;;;3.45;2.20;;;;;;;9.51;68.59;98832.53;5062915;28;20033;-68
2023/03/10 11:03:33;;;;;;;4.23;2.57;;;;;;;10.08;64.98;98842.53;5049947;28;20025;-68
2023/03/10 11:06:00;;;;;;;4.10;2.37;;;;;;;9.51;66.81;98849.03;5054068;28;20048;-69
2023/03/10 11:08:25;;;;;;;3.07;2.27;;;;;;;9.20;69.19;98864.09;5059830;28;20116;-68
2023/03/10 11:11:01;;;;;;;4.40;2.70;;;;;;;10.04;65.25;98851.41;5063708;28;20841;-68
2023/03/10 11:13:56;;;;;;;3.67;2.60;;;;;;;9.66;69.22;98858.03;5066454;28;20273;-69
2023/03/10 11:16:38;;;;;;;6.57;2.70;;;;;;;9.73;67.05;98855.22;5062049;28;20060;-69
2023/03/10 11:19:15;;;;;;;9.17;3.67;;;;;;;9.76;68.12;98844.66;5057032;28;20039;-69
2023/03/10 11:21:46;;;;;;;6.57;3.90;;;;;;;9.83;69.10;98849.56;5058048;28;20054;-68
2023/03/10 11:24:30;;;;;;;5.53;2.93;;;;;;;10.06;63.40;98852.19;5056507;28;20082;-69
2023/03/10 11:27:01;;;;;;;4.33;2.90;;;;;;;9.55;68.99;98854.13;5057310;28;20486;-68
2023/03/10 11:29:38;;;;;;;5.13;2.93;;;;;;;8.73;71.16;98836.19;5065758;28;20111;-68
2023/03/10 11:32:32;;;;;;;5.00;3.00;;;;;;;9.38;70.63;98850.38;5064283;28;20046;-68